sensor_id;sensor_type;location;lat;lon;timestamp;pressure;altitude;pressure_sealevel;temperature;humidity
56038;BME280;41907;47.848;9.000;2023-03-18T00:01:09;95394.66;;;6.09;100.00
56038;BME280;41907;47.848;9.000;2023-03-18T00:03:35;95400.19;;;6.12;100.00
56038;BME280;41907;47.848;9.000;2023-03-18T00:06:10;95405.47;;;5.93;100.00
56038;BME280;41907;47.848;9.000;2023-03-18T00:08:37;95401.06;;;5.84;100.00
56038;BME280;41907;47.848;9.000;2023-03-18T00:11:04;95408.19;;;5.88;100.00
56038;BME280;41907;47.848;9.000;2023-03-18T00:13:31;95411.06;;;5.87;100.00
56038;BME280;41907;47.848;9.000;2023-03-18T00:15:58;95411.56;;;5.94;100.00
56038;BME280;41907;47.848;9.000;2023-03-18T00:18:24;95417.16;;;6.11;100.00
56038;BME280;41907;47.848;9.000;2023-03-18T00:20:50;95406.88;;;6.05;100.00
56038;BME280;41907;47.848;9.000;2023-03-18T00:23:15;95414.69;;;5.96;100.00
56038;BME280;41907;47.848;9.000;2023-03-18T00:25:41;95421.66;;;5.87;100.00
56038;BME280;41907;47.848;9.000;2023-03-18T00:28:08;95414.00;;;5.85;100.00
56038;BME280;41907;47.848;9.000;2023-03-18T00:30:37;95420.72;;;5.78;100.00
56038;BME280;41907;47.848;9.000;2023-03-18T00:33:03;95412.06;;;5.72;100.00
56038;BME280;41907;47.848;9.000;2023-03-18T00:35:29;95412.63;;;5.69;100.00
56038;BME280;41907;47.848;9.000;2023-03-18T00:37:55;95419.78;;;5.69;100.00
56038;BME280;41907;47.848;9.000;2023-03-18T00:40:22;95411.69;;;5.60;100.00
56038;BME280;41907;47.848;9.000;2023-03-18T00:42:54;95425.47;;;5.57;100.00
56038;BME280;41907;47.848;9.000;2023-03-18T00:45:25;95421.72;;;5.63;100.00
56038;BME280;41907;47.848;9.000;2023-03-18T00:47:51;95424.28;;;5.68;100.00
56038;BME280;41907;47.848;9.000;2023-03-18T00:50:17;95432.72;;;5.70;100.00
56038;BME280;41907;47.848;9.000;2023-03-18T00:52:42;95429.59;;;5.92;100.00
56038;BME280;41907;47.848;9.000;2023-03-18T00:55:08;95427.66;;;5.97;100.00
56038;BME280;41907;47.848;9.000;2023-03-18T00:57:35;95427.22;;;5.90;100.00
56038;BME280;41907;47.848;9.000;2023-03-18T01:00:00;95435.69;;;5.87;100.00
56038;BME280;41907;47.848;9.000;2023-03-18T01:02:26;95436.09;;;6.00;100.00
56038;BME280;41907;47.848;9.000;2023-03-18T01:04:53;95432.00;;;5.88;100.00
56038;BME280;41907;47.848;9.000;2023-03-18T01:07:21;95435.38;;;5.70;100.00
56038;BME280;41907;47.848;9.000;2023-03-18T01:09:47;95434.97;;;5.58;100.00
56038;BME280;41907;47.848;9.000;2023-03-18T01:12:13;95423.97;;;5.51;100.00
56038;BME280;41907;47.848;9.000;2023-03-18T01:14:39;95433.81;;;5.45;100.00
56038;BME280;41907;47.848;9.000;2023-03-18T01:17:06;95427.94;;;5.48;100.00
56038;BME280;41907;47.848;9.000;2023-03-18T01:19:32;95436.47;;;5.45;100.00
56038;BME280;41907;47.848;9.000;2023-03-18T01:21:58;95433.59;;;5.42;100.00
56038;BME280;41907;47.848;9.000;2023-03-18T01:24:23;95442.56;;;5.46;100.00
56038;BME280;41907;47.848;9.000;2023-03-18T01:26:49;95441.13;;;5.53;100.00
56038;BME280;41907;47.848;9.000;2023-03-18T01:29:14;95430.66;;;5.67;100.00
56038;BME280;41907;47.848;9.000;2023-03-18T01:31:40;95437.34;;;5.83;100.00
56038;BME280;41907;47.848;9.000;2023-03-18T01:34:06;95435.03;;;6.01;100.00
56038;BME280;41907;47.848;9.000;2023-03-18T01:36:31;95438.31;;;6.11;100.00
56038;BME280;41907;47.848;9.000;2023-03-18T01:38:57;95434.59;;;6.12;100.00
56038;BME280;41907;47.848;9.000;2023-03-18T01:41:24;95431.31;;;6.02;100.00
56038;BME280;41907;47.848;9.000;2023-03-18T01:43:52;95433.44;;;6.00;100.00
56038;BME280;41907;47.848;9.000;2023-03-18T01:46:40;95431.97;;;6.12;100.00
56038;BME280;41907;47.848;9.000;2023-03-18T01:51:48;95428.28;;;5.89;100.00
56038;BME280;41907;47.848;9.000;2023-03-18T01:54:15;95428.09;;;5.81;100.00
56038;BME280;41907;47.848;9.000;2023-03-18T01:56:45;95428.66;;;5.78;100.00
56038;BME280;41907;47.848;9.000;2023-03-18T01:59:13;95423.38;;;5.78;100.00
56038;BME280;41907;47.848;9.000;2023-03-18T02:01:41;95434.03;;;5.73;100.00
56038;BME280;41907;47.848;9.000;2023-03-18T02:04:09;95430.16;;;5.65;100.00
56038;BME280;41907;47.848;9.000;2023-03-18T02:06:35;95426.13;;;5.68;100.00
56038;BME280;41907;47.848;9.000;2023-03-18T02:09:01;95423.72;;;5.71;100.00
56038;BME280;41907;47.848;9.000;2023-03-18T02:11:30;95413.50;;;5.65;100.00
56038;BME280;41907;47.848;9.000;2023-03-18T02:13:58;95423.81;;;5.42;100.00
56038;BME280;41907;47.848;9.000;2023-03-18T02:16:27;95422.63;;;5.30;100.00
56038;BME280;41907;47.848;9.000;2023-03-18T02:18:59;95419.19;;;5.29;100.00
56038;BME280;41907;47.848;9.000;2023-03-18T02:21:53;95422.69;;;5.24;100.00
56038;BME280;41907;47.848;9.000;2023-03-18T02:24:40;95423.50;;;5.20;100.00
56038;BME280;41907;47.848;9.000;2023-03-18T02:29:42;95426.66;;;4.98;100.00
56038;BME280;41907;47.848;9.000;2023-03-18T02:32:08;95427.19;;;4.95;100.00
56038;BME280;41907;47.848;9.000;2023-03-18T02:34:36;95434.06;;;4.96;100.00
56038;BME280;41907;47.848;9.000;2023-03-18T02:37:02;95430.41;;;4.92;100.00
56038;BME280;41907;47.848;9.000;2023-03-18T02:39:28;95419.63;;;4.83;100.00
56038;BME280;41907;47.848;9.000;2023-03-18T02:41:55;95417.78;;;4.84;100.00
56038;BME280;41907;47.848;9.000;2023-03-18T02:44:21;95419.97;;;4.77;100.00
56038;BME280;41907;47.848;9.000;2023-03-18T02:46:53;95408.34;;;4.78;100.00
56038;BME280;41907;47.848;9.000;2023-03-18T02:49:22;95416.88;;;4.70;100.00
56038;BME280;41907;47.848;9.000;2023-03-18T02:51:49;95419.53;;;4.65;100.00
56038;BME280;41907;47.848;9.000;2023-03-18T02:54:21;95413.47;;;4.64;100.00
56038;BME280;41907;47.848;9.000;2023-03-18T02:56:48;95424.56;;;4.66;100.00
56038;BME280;41907;47.848;9.000;2023-03-18T02:59:14;95420.00;;;4.72;100.00
56038;BME280;41907;47.848;9.000;2023-03-18T03:01:42;95426.31;;;4.76;100.00
56038;BME280;41907;47.848;9.000;2023-03-18T03:04:08;95417.50;;;4.85;100.00
56038;BME280;41907;47.848;9.000;2023-03-18T03:06:34;95425.91;;;4.93;100.00
56038;BME280;41907;47.848;9.000;2023-03-18T03:09:02;95415.31;;;4.93;100.00
56038;BME280;41907;47.848;9.000;2023-03-18T03:11:27;95420.34;;;4.94;100.00
56038;BME280;41907;47.848;9.000;2023-03-18T03:13:53;95418.25;;;4.91;100.00
56038;BME280;41907;47.848;9.000;2023-03-18T03:16:18;95418.75;;;4.93;100.00
56038;BME280;41907;47.848;9.000;2023-03-18T03:18:44;95423.78;;;4.95;100.00
56038;BME280;41907;47.848;9.000;2023-03-18T03:21:11;95425.88;;;4.98;100.00
56038;BME280;41907;47.848;9.000;2023-03-18T03:23:38;95425.28;;;5.01;100.00
56038;BME280;41907;47.848;9.000;2023-03-18T03:26:04;95432.41;;;5.05;100.00
56038;BME280;41907;47.848;9.000;2023-03-18T03:28:31;95420.47;;;5.08;100.00
56038;BME280;41907;47.848;9.000;2023-03-18T03:30:57;95428.44;;;5.03;100.00
56038;BME280;41907;47.848;9.000;2023-03-18T03:33:23;95434.16;;;5.15;100.00
56038;BME280;41907;47.848;9.000;2023-03-18T03:35:50;95435.03;;;5.29;100.00
56038;BME280;41907;47.848;9.000;2023-03-18T03:38:15;95432.53;;;5.19;100.00
56038;BME280;41907;47.848;9.000;2023-03-18T03:40:41;95442.00;;;4.96;100.00
56038;BME280;41907;47.848;9.000;2023-03-18T03:43:06;95442.34;;;4.84;100.00
56038;BME280;41907;47.848;9.000;2023-03-18T03:45:32;95441.38;;;4.75;100.00
56038;BME280;41907;47.848;9.000;2023-03-18T03:47:59;95439.81;;;4.74;100.00
56038;BME280;41907;47.848;9.000;2023-03-18T03:50:25;95447.31;;;4.62;100.00
56038;BME280;41907;47.848;9.000;2023-03-18T03:52:50;95443.09;;;4.61;100.00
56038;BME280;41907;47.848;9.000;2023-03-18T03:55:19;95446.84;;;4.84;100.00
56038;BME280;41907;47.848;9.000;2023-03-18T03:57:45;95446.41;;;4.77;100.00
56038;BME280;41907;47.848;9.000;2023-03-18T04:00:13;95448.88;;;4.63;100.00
56038;BME280;41907;47.848;9.000;2023-03-18T04:02:41;95448.47;;;4.46;100.00
56038;BME280;41907;47.848;9.000;2023-03-18T04:05:08;95445.72;;;4.27;100.00
56038;BME280;41907;47.848;9.000;2023-03-18T04:07:35;95447.09;;;4.20;100.00
56038;BME280;41907;47.848;9.000;2023-03-18T04:10:00;95444.97;;;4.22;100.00
56038;BME280;41907;47.848;9.000;2023-03-18T04:12:27;95455.28;;;4.18;100.00
56038;BME280;41907;47.848;9.000;2023-03-18T04:14:52;95450.50;;;4.20;100.00
56038;BME280;41907;47.848;9.000;2023-03-18T04:17:18;95456.56;;;4.21;100.00
56038;BME280;41907;47.848;9.000;2023-03-18T04:19:44;95461.34;;;4.19;100.00
56038;BME280;41907;47.848;9.000;2023-03-18T04:22:09;95462.00;;;3.95;100.00
56038;BME280;41907;47.848;9.000;2023-03-18T04:24:35;95463.34;;;3.93;100.00
56038;BME280;41907;47.848;9.000;2023-03-18T04:27:00;95462.81;;;3.91;100.00
56038;BME280;41907;47.848;9.000;2023-03-18T04:29:26;95450.66;;;3.95;100.00
56038;BME280;41907;47.848;9.000;2023-03-18T04:31:51;95454.78;;;4.11;100.00
56038;BME280;41907;47.848;9.000;2023-03-18T04:34:16;95451.03;;;4.22;100.00
56038;BME280;41907;47.848;9.000;2023-03-18T04:36:42;95466.03;;;4.27;100.00
56038;BME280;41907;47.848;9.000;2023-03-18T04:39:08;95459.34;;;4.39;100.00
56038;BME280;41907;47.848;9.000;2023-03-18T04:41:34;95462.31;;;4.33;100.00
56038;BME280;41907;47.848;9.000;2023-03-18T04:44:01;95457.94;;;4.13;100.00
56038;BME280;41907;47.848;9.000;2023-03-18T04:46:26;95461.47;;;3.93;100.00
56038;BME280;41907;47.848;9.000;2023-03-18T04:48:54;95460.97;;;3.91;100.00
56038;BME280;41907;47.848;9.000;2023-03-18T04:51:19;95459.63;;;3.94;100.00
56038;BME280;41907;47.848;9.000;2023-03-18T04:53:45;95462.00;;;3.95;100.00
56038;BME280;41907;47.848;9.000;2023-03-18T04:56:10;95466.19;;;3.96;100.00
56038;BME280;41907;47.848;9.000;2023-03-18T04:58:36;95462.22;;;4.04;100.00
56038;BME280;41907;47.848;9.000;2023-03-18T05:01:02;95464.59;;;4.05;100.00
56038;BME280;41907;47.848;9.000;2023-03-18T05:03:28;95462.75;;;4.01;100.00
56038;BME280;41907;47.848;9.000;2023-03-18T05:05:54;95466.19;;;3.96;100.00
56038;BME280;41907;47.848;9.000;2023-03-18T05:08:21;95465.66;;;3.99;100.00
56038;BME280;41907;47.848;9.000;2023-03-18T05:10:48;95462.81;;;3.96;100.00
56038;BME280;41907;47.848;9.000;2023-03-18T05:13:14;95461.97;;;4.00;100.00
56038;BME280;41907;47.848;9.000;2023-03-18T05:15:40;95461.69;;;4.02;100.00
56038;BME280;41907;47.848;9.000;2023-03-18T05:18:06;95446.66;;;4.02;100.00
56038;BME280;41907;47.848;9.000;2023-03-18T05:20:32;95460.84;;;4.11;100.00
56038;BME280;41907;47.848;9.000;2023-03-18T05:22:58;95451.81;;;4.23;100.00
56038;BME280;41907;47.848;9.000;2023-03-18T05:25:23;95459.84;;;4.02;100.00
56038;BME280;41907;47.848;9.000;2023-03-18T05:27:48;95465.25;;;3.77;100.00
56038;BME280;41907;47.848;9.000;2023-03-18T05:30:14;95474.53;;;3.59;100.00
56038;BME280;41907;47.848;9.000;2023-03-18T05:32:40;95463.78;;;3.41;100.00
56038;BME280;41907;47.848;9.000;2023-03-18T05:35:07;95465.44;;;3.26;100.00
56038;BME280;41907;47.848;9.000;2023-03-18T05:37:33;95460.69;;;3.13;100.00
56038;BME280;41907;47.848;9.000;2023-03-18T05:39:58;95463.09;;;3.10;100.00
56038;BME280;41907;47.848;9.000;2023-03-18T05:42:24;95460.47;;;2.94;100.00
56038;BME280;41907;47.848;9.000;2023-03-18T05:44:49;95462.59;;;2.97;100.00
56038;BME280;41907;47.848;9.000;2023-03-18T05:47:15;95466.00;;;3.03;100.00
56038;BME280;41907;47.848;9.000;2023-03-18T05:49:40;95463.66;;;3.02;100.00
56038;BME280;41907;47.848;9.000;2023-03-18T05:52:06;95461.28;;;3.00;100.00
56038;BME280;41907;47.848;9.000;2023-03-18T05:54:31;95462.53;;;3.13;100.00
56038;BME280;41907;47.848;9.000;2023-03-18T05:56:57;95461.19;;;3.30;100.00
56038;BME280;41907;47.848;9.000;2023-03-18T05:59:22;95459.53;;;3.55;100.00
56038;BME280;41907;47.848;9.000;2023-03-18T06:01:49;95465.56;;;3.60;100.00
56038;BME280;41907;47.848;9.000;2023-03-18T06:04:15;95461.16;;;3.46;100.00
56038;BME280;41907;47.848;9.000;2023-03-18T06:06:44;95455.31;;;3.54;100.00
56038;BME280;41907;47.848;9.000;2023-03-18T06:09:12;95464.25;;;3.68;100.00
56038;BME280;41907;47.848;9.000;2023-03-18T06:11:38;95460.00;;;3.72;100.00
56038;BME280;41907;47.848;9.000;2023-03-18T06:14:05;95464.16;;;3.83;100.00
56038;BME280;41907;47.848;9.000;2023-03-18T06:16:31;95471.47;;;4.01;100.00
56038;BME280;41907;47.848;9.000;2023-03-18T06:18:57;95470.78;;;4.25;100.00
56038;BME280;41907;47.848;9.000;2023-03-18T06:21:23;95464.38;;;4.41;100.00
56038;BME280;41907;47.848;9.000;2023-03-18T06:23:49;95469.31;;;4.53;100.00
56038;BME280;41907;47.848;9.000;2023-03-18T06:26:15;95476.91;;;4.59;100.00
56038;BME280;41907;47.848;9.000;2023-03-18T06:28:41;95476.72;;;4.84;100.00
56038;BME280;41907;47.848;9.000;2023-03-18T06:31:06;95476.28;;;5.01;100.00
56038;BME280;41907;47.848;9.000;2023-03-18T06:33:32;95472.06;;;5.00;100.00
56038;BME280;41907;47.848;9.000;2023-03-18T06:35:58;95468.44;;;5.20;100.00
56038;BME280;41907;47.848;9.000;2023-03-18T06:38:25;95467.34;;;5.50;100.00
56038;BME280;41907;47.848;9.000;2023-03-18T06:40:51;95455.25;;;5.91;100.00
56038;BME280;41907;47.848;9.000;2023-03-18T06:43:16;95465.75;;;6.71;100.00
56038;BME280;41907;47.848;9.000;2023-03-18T06:45:42;95463.69;;;7.74;100.00
56038;BME280;41907;47.848;9.000;2023-03-18T06:48:08;95461.28;;;8.28;96.44
56038;BME280;41907;47.848;9.000;2023-03-18T06:50:34;95461.63;;;9.86;88.64
56038;BME280;41907;47.848;9.000;2023-03-18T06:53:00;95459.41;;;10.88;79.40
56038;BME280;41907;47.848;9.000;2023-03-18T06:55:25;95458.19;;;11.96;72.60
56038;BME280;41907;47.848;9.000;2023-03-18T06:57:52;95460.94;;;13.32;65.01
56038;BME280;41907;47.848;9.000;2023-03-18T07:00:18;95465.03;;;14.36;58.83
56038;BME280;41907;47.848;9.000;2023-03-18T07:02:43;95470.28;;;14.97;55.99
56038;BME280;41907;47.848;9.000;2023-03-18T07:05:10;95465.69;;;16.16;51.23
56038;BME280;41907;47.848;9.000;2023-03-18T07:07:37;95466.47;;;16.16;50.20
56038;BME280;41907;47.848;9.000;2023-03-18T07:10:05;95469.91;;;16.32;49.99
56038;BME280;41907;47.848;9.000;2023-03-18T07:12:30;95473.50;;;17.29;47.39
56038;BME280;41907;47.848;9.000;2023-03-18T07:14:56;95476.16;;;18.13;44.21
56038;BME280;41907;47.848;9.000;2023-03-18T07:17:21;95473.53;;;18.70;42.67
56038;BME280;41907;47.848;9.000;2023-03-18T07:19:47;95476.38;;;18.77;42.83
56038;BME280;41907;47.848;9.000;2023-03-18T07:22:13;95488.34;;;19.09;41.65
56038;BME280;41907;47.848;9.000;2023-03-18T07:24:41;95490.00;;;18.87;41.37
56038;BME280;41907;47.848;9.000;2023-03-18T07:27:07;95494.91;;;19.75;40.96
56038;BME280;41907;47.848;9.000;2023-03-18T07:29:32;95499.44;;;20.49;39.03
56038;BME280;41907;47.848;9.000;2023-03-18T07:31:57;95497.88;;;21.09;37.30
56038;BME280;41907;47.848;9.000;2023-03-18T07:34:23;95497.56;;;21.25;36.87
56038;BME280;41907;47.848;9.000;2023-03-18T07:36:48;95499.13;;;21.23;37.17
56038;BME280;41907;47.848;9.000;2023-03-18T07:39:14;95498.97;;;22.20;35.97
56038;BME280;41907;47.848;9.000;2023-03-18T07:41:40;95503.22;;;22.88;34.35
56038;BME280;41907;47.848;9.000;2023-03-18T07:44:05;95502.78;;;23.11;33.91
56038;BME280;41907;47.848;9.000;2023-03-18T07:46:32;95501.00;;;23.70;32.70
56038;BME280;41907;47.848;9.000;2023-03-18T07:48:57;95500.66;;;23.65;32.73
56038;BME280;41907;47.848;9.000;2023-03-18T07:51:23;95499.97;;;23.32;33.65
56038;BME280;41907;47.848;9.000;2023-03-18T07:53:48;95501.00;;;23.74;32.94
56038;BME280;41907;47.848;9.000;2023-03-18T07:56:16;95498.56;;;23.90;33.06
56038;BME280;41907;47.848;9.000;2023-03-18T07:58:41;95502.72;;;23.25;32.87
56038;BME280;41907;47.848;9.000;2023-03-18T08:01:07;95502.47;;;22.06;34.82
56038;BME280;41907;47.848;9.000;2023-03-18T08:03:33;95507.50;;;22.04;35.08
56038;BME280;41907;47.848;9.000;2023-03-18T08:05:59;95506.53;;;23.53;33.60
56038;BME280;41907;47.848;9.000;2023-03-18T08:08:24;95510.44;;;23.41;32.45
56038;BME280;41907;47.848;9.000;2023-03-18T08:10:51;95520.94;;;23.50;30.80
56038;BME280;41907;47.848;9.000;2023-03-18T08:13:20;95522.22;;;23.10;32.08
56038;BME280;41907;47.848;9.000;2023-03-18T08:15:45;95509.69;;;23.37;31.75
56038;BME280;41907;47.848;9.000;2023-03-18T08:18:10;95511.00;;;24.46;31.32
56038;BME280;41907;47.848;9.000;2023-03-18T08:20:36;95514.06;;;24.56;30.36
56038;BME280;41907;47.848;9.000;2023-03-18T08:23:02;95511.25;;;24.66;29.67
56038;BME280;41907;47.848;9.000;2023-03-18T08:25:27;95523.16;;;25.24;29.84
56038;BME280;41907;47.848;9.000;2023-03-18T08:27:53;95526.28;;;26.17;28.55
56038;BME280;41907;47.848;9.000;2023-03-18T08:30:18;95519.63;;;26.18;27.92
56038;BME280;41907;47.848;9.000;2023-03-18T08:32:44;95516.63;;;26.09;28.50
56038;BME280;41907;47.848;9.000;2023-03-18T08:35:10;95513.19;;;27.02;27.08
56038;BME280;41907;47.848;9.000;2023-03-18T08:37:36;95521.72;;;27.08;26.92
56038;BME280;41907;47.848;9.000;2023-03-18T08:40:03;95519.16;;;27.96;25.85
56038;BME280;41907;47.848;9.000;2023-03-18T08:42:29;95514.88;;;27.95;25.59
56038;BME280;41907;47.848;9.000;2023-03-18T08:44:54;95517.88;;;28.20;25.62
56038;BME280;41907;47.848;9.000;2023-03-18T08:47:20;95522.19;;;28.54;24.80
56038;BME280;41907;47.848;9.000;2023-03-18T08:49:46;95517.97;;;27.97;26.21
56038;BME280;41907;47.848;9.000;2023-03-18T08:52:11;95515.03;;;27.09;27.05
56038;BME280;41907;47.848;9.000;2023-03-18T08:54:37;95522.16;;;27.65;26.60
56038;BME280;41907;47.848;9.000;2023-03-18T08:57:03;95519.09;;;27.99;26.74
56038;BME280;41907;47.848;9.000;2023-03-18T08:59:30;95527.38;;;28.32;24.97
56038;BME280;41907;47.848;9.000;2023-03-18T09:01:55;95512.09;;;27.39;25.51
56038;BME280;41907;47.848;9.000;2023-03-18T09:04:21;95515.91;;;27.45;26.53
56038;BME280;41907;47.848;9.000;2023-03-18T09:06:48;95510.53;;;28.13;25.95
56038;BME280;41907;47.848;9.000;2023-03-18T09:09:14;95512.31;;;28.56;24.90
56038;BME280;41907;47.848;9.000;2023-03-18T09:11:40;95507.91;;;28.10;25.94
56038;BME280;41907;47.848;9.000;2023-03-18T09:14:05;95502.78;;;28.44;25.02
56038;BME280;41907;47.848;9.000;2023-03-18T09:16:31;95505.25;;;28.71;24.73
56038;BME280;41907;47.848;9.000;2023-03-18T09:18:57;95508.66;;;29.08;24.35
56038;BME280;41907;47.848;9.000;2023-03-18T09:21:22;95514.47;;;28.12;25.26
56038;BME280;41907;47.848;9.000;2023-03-18T09:23:48;95506.41;;;28.58;24.24
56038;BME280;41907;47.848;9.000;2023-03-18T09:26:15;95508.44;;;28.70;24.92
56038;BME280;41907;47.848;9.000;2023-03-18T09:28:40;95513.94;;;28.70;24.33
56038;BME280;41907;47.848;9.000;2023-03-18T09:31:05;95511.13;;;28.05;25.98
56038;BME280;41907;47.848;9.000;2023-03-18T09:33:31;95508.63;;;28.79;24.49
56038;BME280;41907;47.848;9.000;2023-03-18T09:35:56;95500.53;;;29.04;24.26
56038;BME280;41907;47.848;9.000;2023-03-18T09:38:22;95497.09;;;29.00;23.97
56038;BME280;41907;47.848;9.000;2023-03-18T09:48:43;95488.25;;;27.95;24.80
56038;BME280;41907;47.848;9.000;2023-03-18T09:56:29;95482.56;;;28.87;23.58
56038;BME280;41907;47.848;9.000;2023-03-18T09:59:28;95476.28;;;27.69;24.68
56038;BME280;41907;47.848;9.000;2023-03-18T10:01:56;95479.66;;;28.29;25.41
56038;BME280;41907;47.848;9.000;2023-03-18T10:04:25;95477.22;;;28.15;25.84
56038;BME280;41907;47.848;9.000;2023-03-18T10:07:00;95473.13;;;28.23;26.26
56038;BME280;41907;47.848;9.000;2023-03-18T10:09:30;95479.41;;;27.88;25.77
56038;BME280;41907;47.848;9.000;2023-03-18T10:12:06;95474.16;;;28.45;25.97
56038;BME280;41907;47.848;9.000;2023-03-18T10:14:46;95475.97;;;28.20;24.54
56038;BME280;41907;47.848;9.000;2023-03-18T10:17:24;95471.38;;;26.05;27.77
56038;BME280;41907;47.848;9.000;2023-03-18T10:19:56;95467.94;;;25.43;28.96
56038;BME280;41907;47.848;9.000;2023-03-18T10:24:56;95458.31;;;26.66;27.50
56038;BME280;41907;47.848;9.000;2023-03-18T10:35:30;95465.88;;;28.13;25.60
56038;BME280;41907;47.848;9.000;2023-03-18T10:40:24;95462.94;;;28.24;26.28
56038;BME280;41907;47.848;9.000;2023-03-18T10:42:51;95468.53;;;28.98;24.98
56038;BME280;41907;47.848;9.000;2023-03-18T10:45:24;95462.69;;;29.53;24.51
56038;BME280;41907;47.848;9.000;2023-03-18T10:48:06;95454.72;;;27.71;24.39
56038;BME280;41907;47.848;9.000;2023-03-18T10:50:43;95447.25;;;26.73;25.70
56038;BME280;41907;47.848;9.000;2023-03-18T10:53:19;95450.50;;;25.94;27.04
56038;BME280;41907;47.848;9.000;2023-03-18T10:56:01;95446.69;;;27.25;26.04
56038;BME280;41907;47.848;9.000;2023-03-18T10:58:29;95440.38;;;26.85;26.69
56038;BME280;41907;47.848;9.000;2023-03-18T11:00:54;95437.34;;;27.94;25.27
56038;BME280;41907;47.848;9.000;2023-03-18T11:03:27;95439.53;;;26.45;26.87
56038;BME280;41907;47.848;9.000;2023-03-18T11:06:00;95430.41;;;26.98;26.16
56038;BME280;41907;47.848;9.000;2023-03-18T11:08:46;95430.50;;;27.50;25.61
56038;BME280;41907;47.848;9.000;2023-03-18T11:11:14;95438.81;;;27.83;25.13
56038;BME280;41907;47.848;9.000;2023-03-18T11:13:46;95433.28;;;26.67;26.25
56038;BME280;41907;47.848;9.000;2023-03-18T11:16:22;95426.97;;;26.01;28.09
56038;BME280;41907;47.848;9.000;2023-03-18T11:18:48;95420.28;;;26.28;27.50
56038;BME280;41907;47.848;9.000;2023-03-18T11:21:15;95416.19;;;27.23;25.97
56038;BME280;41907;47.848;9.000;2023-03-18T11:23:49;95409.81;;;26.47;26.50
56038;BME280;41907;47.848;9.000;2023-03-18T11:26:52;95408.81;;;26.14;26.64
56038;BME280;41907;47.848;9.000;2023-03-18T11:29:25;95412.72;;;26.59;26.61
56038;BME280;41907;47.848;9.000;2023-03-18T11:31:54;95410.63;;;26.87;26.62
56038;BME280;41907;47.848;9.000;2023-03-18T11:34:24;95407.16;;;26.63;26.47
56038;BME280;41907;47.848;9.000;2023-03-18T11:39:30;95403.03;;;26.55;25.81
56038;BME280;41907;47.848;9.000;2023-03-18T11:41:58;95407.38;;;25.79;26.72
56038;BME280;41907;47.848;9.000;2023-03-18T11:44:28;95399.13;;;25.55;27.65
56038;BME280;41907;47.848;9.000;2023-03-18T11:47:04;95404.91;;;25.31;27.29
56038;BME280;41907;47.848;9.000;2023-03-18T11:49:33;95391.44;;;23.49;28.54
56038;BME280;41907;47.848;9.000;2023-03-18T11:55:03;95383.22;;;22.83;30.31
56038;BME280;41907;47.848;9.000;2023-03-18T11:57:56;95376.88;;;23.07;30.91
56038;BME280;41907;47.848;9.000;2023-03-18T12:00:31;95370.19;;;23.22;31.50
56038;BME280;41907;47.848;9.000;2023-03-18T12:06:21;95363.56;;;21.79;33.06
56038;BME280;41907;47.848;9.000;2023-03-18T12:09:14;95358.16;;;22.04;31.49
56038;BME280;41907;47.848;9.000;2023-03-18T12:17:32;95346.09;;;22.23;31.87
56038;BME280;41907;47.848;9.000;2023-03-18T12:20:06;95339.13;;;22.01;31.43
56038;BME280;41907;47.848;9.000;2023-03-18T12:28:31;95332.13;;;20.31;31.95
56038;BME280;41907;47.848;9.000;2023-03-18T12:31:12;95336.97;;;20.63;31.65
56038;BME280;41907;47.848;9.000;2023-03-18T12:33:55;95336.34;;;20.18;31.93
56038;BME280;41907;47.848;9.000;2023-03-18T12:36:49;95332.81;;;19.19;34.05
56038;BME280;41907;47.848;9.000;2023-03-18T12:39:32;95330.47;;;19.54;34.02
56038;BME280;41907;47.848;9.000;2023-03-18T12:42:02;95329.72;;;19.57;32.37
56038;BME280;41907;47.848;9.000;2023-03-18T12:47:16;95336.06;;;19.35;33.77
56038;BME280;41907;47.848;9.000;2023-03-18T12:49:52;95329.84;;;18.90;33.23
56038;BME280;41907;47.848;9.000;2023-03-18T12:52:24;95327.16;;;19.31;33.52
56038;BME280;41907;47.848;9.000;2023-03-18T12:54:56;95329.69;;;19.54;32.68
56038;BME280;41907;47.848;9.000;2023-03-18T12:57:37;95329.09;;;19.78;32.77
56038;BME280;41907;47.848;9.000;2023-03-18T13:00:13;95328.72;;;19.36;32.99
56038;BME280;41907;47.848;9.000;2023-03-18T13:03:02;95322.41;;;19.21;32.39
56038;BME280;41907;47.848;9.000;2023-03-18T13:05:40;95317.47;;;18.89;33.97
56038;BME280;41907;47.848;9.000;2023-03-18T13:11:30;95311.56;;;19.17;33.72
56038;BME280;41907;47.848;9.000;2023-03-18T13:14:04;95320.66;;;18.99;33.54
56038;BME280;41907;47.848;9.000;2023-03-18T13:16:31;95317.72;;;19.14;34.98
56038;BME280;41907;47.848;9.000;2023-03-18T13:19:01;95325.91;;;19.21;32.93
56038;BME280;41907;47.848;9.000;2023-03-18T13:21:34;95316.28;;;19.27;32.56
56038;BME280;41907;47.848;9.000;2023-03-18T13:24:21;95309.94;;;19.06;33.17
56038;BME280;41907;47.848;9.000;2023-03-18T13:29:43;95323.25;;;18.88;32.17
56038;BME280;41907;47.848;9.000;2023-03-18T13:35:25;95309.47;;;18.97;31.49
56038;BME280;41907;47.848;9.000;2023-03-18T13:38:19;95320.09;;;18.82;31.41
56038;BME280;41907;47.848;9.000;2023-03-18T13:40:59;95321.88;;;19.05;31.08
56038;BME280;41907;47.848;9.000;2023-03-18T13:43:31;95321.16;;;19.11;31.79
56038;BME280;41907;47.848;9.000;2023-03-18T13:45:58;95319.63;;;19.10;32.22
56038;BME280;41907;47.848;9.000;2023-03-18T13:48:33;95320.38;;;19.11;32.28
56038;BME280;41907;47.848;9.000;2023-03-18T13:51:16;95311.81;;;19.46;29.95
56038;BME280;41907;47.848;9.000;2023-03-18T13:53:42;95313.44;;;19.50;30.47
56038;BME280;41907;47.848;9.000;2023-03-18T13:58:52;95307.91;;;18.95;31.57
56038;BME280;41907;47.848;9.000;2023-03-18T14:03:54;95293.81;;;18.46;33.55
56038;BME280;41907;47.848;9.000;2023-03-18T14:09:21;95293.97;;;17.70;34.35
56038;BME280;41907;47.848;9.000;2023-03-18T14:11:51;95294.03;;;17.74;34.79
56038;BME280;41907;47.848;9.000;2023-03-18T14:17:22;95285.16;;;17.51;34.80
56038;BME280;41907;47.848;9.000;2023-03-18T14:19:54;95287.97;;;17.58;35.16
56038;BME280;41907;47.848;9.000;2023-03-18T14:22:27;95283.78;;;17.60;35.30